sensor_id;sensor_type;location;lat;lon;timestamp;pressure;altitude;pressure_sealevel;temperature;humidity
21520;BME280;10921;53.614;9.882;2024-02-26T00:00:23;100176.84;;;4.00;90.58
21520;BME280;10921;53.614;9.882;2024-02-26T00:02:50;100179.13;;;3.93;90.14
21520;BME280;10921;53.614;9.882;2024-02-26T00:05:17;100178.72;;;3.86;90.32
21520;BME280;10921;53.614;9.882;2024-02-26T00:07:43;100188.66;;;3.83;90.27
21520;BME280;10921;53.614;9.882;2024-02-26T00:10:11;100179.44;;;3.77;90.48
21520;BME280;10921;53.614;9.882;2024-02-26T00:12:37;100179.78;;;3.73;90.23
21520;BME280;10921;53.614;9.882;2024-02-26T00:15:09;100180.22;;;3.67;91.11
21520;BME280;10921;53.614;9.882;2024-02-26T00:17:36;100185.75;;;3.64;90.55
21520;BME280;10921;53.614;9.882;2024-02-26T00:20:03;100181.75;;;3.58;90.65
21520;BME280;10921;53.614;9.882;2024-02-26T00:22:36;100182.06;;;3.53;90.66
21520;BME280;10921;53.614;9.882;2024-02-26T00:25:03;100176.22;;;3.50;90.87
21520;BME280;10921;53.614;9.882;2024-02-26T00:27:30;100178.34;;;3.45;91.44
21520;BME280;10921;53.614;9.882;2024-02-26T00:29:57;100182.88;;;3.43;91.59
21520;BME280;10921;53.614;9.882;2024-02-26T00:32:24;100184.03;;;3.39;91.33
21520;BME280;10921;53.614;9.882;2024-02-26T00:34:50;100185.00;;;3.38;91.47
21520;BME280;10921;53.614;9.882;2024-02-26T00:37:17;100171.75;;;3.27;91.66
21520;BME280;10921;53.614;9.882;2024-02-26T00:39:43;100180.06;;;3.33;91.54
21520;BME280;10921;53.614;9.882;2024-02-26T00:42:11;100179.34;;;3.31;91.88
21520;BME280;10921;53.614;9.882;2024-02-26T00:44:37;100182.09;;;3.30;91.73
21520;BME280;10921;53.614;9.882;2024-02-26T00:47:04;100183.34;;;3.24;91.73
21520;BME280;10921;53.614;9.882;2024-02-26T00:49:30;100182.75;;;3.21;91.35
21520;BME280;10921;53.614;9.882;2024-02-26T00:51:57;100187.31;;;3.18;91.16
21520;BME280;10921;53.614;9.882;2024-02-26T00:54:24;100187.50;;;3.15;91.19
21520;BME280;10921;53.614;9.882;2024-02-26T00:56:50;100187.72;;;3.12;91.51
21520;BME280;10921;53.614;9.882;2024-02-26T00:59:17;100189.84;;;3.07;91.42
21520;BME280;10921;53.614;9.882;2024-02-26T01:01:43;100185.88;;;3.02;91.28
21520;BME280;10921;53.614;9.882;2024-02-26T01:04:10;100185.97;;;3.00;91.22
21520;BME280;10921;53.614;9.882;2024-02-26T01:06:38;100196.84;;;2.96;90.93
21520;BME280;10921;53.614;9.882;2024-02-26T01:09:05;100188.28;;;2.92;91.23
21520;BME280;10921;53.614;9.882;2024-02-26T01:11:32;100185.28;;;2.86;91.83
21520;BME280;10921;53.614;9.882;2024-02-26T01:13:58;100168.31;;;2.77;92.28
21520;BME280;10921;53.614;9.882;2024-02-26T01:16:25;100189.69;;;2.85;92.37
21520;BME280;10921;53.614;9.882;2024-02-26T01:18:51;100194.13;;;2.85;92.95
21520;BME280;10921;53.614;9.882;2024-02-26T01:21:18;100199.41;;;2.85;92.76
21520;BME280;10921;53.614;9.882;2024-02-26T01:23:45;100198.44;;;2.86;93.16
21520;BME280;10921;53.614;9.882;2024-02-26T01:26:11;100198.56;;;2.84;93.06
21520;BME280;10921;53.614;9.882;2024-02-26T01:28:38;100205.50;;;2.85;93.30
21520;BME280;10921;53.614;9.882;2024-02-26T01:31:04;100203.94;;;2.82;92.71
21520;BME280;10921;53.614;9.882;2024-02-26T01:33:34;100181.09;;;2.70;92.37
21520;BME280;10921;53.614;9.882;2024-02-26T01:36:00;100191.91;;;2.78;92.03
21520;BME280;10921;53.614;9.882;2024-02-26T01:38:27;100192.97;;;2.76;92.17
21520;BME280;10921;53.614;9.882;2024-02-26T01:40:54;100192.78;;;2.66;92.34
21520;BME280;10921;53.614;9.882;2024-02-26T01:43:20;100199.72;;;2.67;92.05
21520;BME280;10921;53.614;9.882;2024-02-26T01:45:47;100200.28;;;2.60;91.88
21520;BME280;10921;53.614;9.882;2024-02-26T01:48:14;100205.66;;;2.58;91.98
21520;BME280;10921;53.614;9.882;2024-02-26T01:50:41;100205.84;;;2.55;91.57
21520;BME280;10921;53.614;9.882;2024-02-26T01:53:08;100208.69;;;2.52;91.92
21520;BME280;10921;53.614;9.882;2024-02-26T01:55:35;100188.78;;;2.35;91.39
21520;BME280;10921;53.614;9.882;2024-02-26T01:58:02;100213.53;;;2.45;91.88
21520;BME280;10921;53.614;9.882;2024-02-26T02:00:29;100206.91;;;2.40;92.11
21520;BME280;10921;53.614;9.882;2024-02-26T02:02:56;100210.50;;;2.39;91.79
21520;BME280;10921;53.614;9.882;2024-02-26T02:05:23;100210.69;;;2.36;92.06
21520;BME280;10921;53.614;9.882;2024-02-26T02:07:51;100216.06;;;2.34;91.69
21520;BME280;10921;53.614;9.882;2024-02-26T02:10:19;100205.13;;;2.28;91.92
21520;BME280;10921;53.614;9.882;2024-02-26T02:12:49;100222.72;;;2.27;91.45
21520;BME280;10921;53.614;9.882;2024-02-26T02:15:15;100201.75;;;2.13;91.48
21520;BME280;10921;53.614;9.882;2024-02-26T02:17:42;100198.97;;;2.15;91.13
21520;BME280;10921;53.614;9.882;2024-02-26T02:20:16;100203.28;;;2.16;92.00
21520;BME280;10921;53.614;9.882;2024-02-26T02:22:45;100200.06;;;2.12;91.33
21520;BME280;10921;53.614;9.882;2024-02-26T02:25:12;100206.47;;;2.08;91.80
21520;BME280;10921;53.614;9.882;2024-02-26T02:27:39;100179.38;;;1.93;92.04
21520;BME280;10921;53.614;9.882;2024-02-26T02:30:07;100196.44;;;2.00;92.29
21520;BME280;10921;53.614;9.882;2024-02-26T02:32:37;100168.97;;;1.92;92.16
21520;BME280;10921;53.614;9.882;2024-02-26T02:35:05;100198.38;;;2.11;92.22
21520;BME280;10921;53.614;9.882;2024-02-26T02:37:31;100203.38;;;2.01;91.25
21520;BME280;10921;53.614;9.882;2024-02-26T02:39:58;100207.06;;;1.99;91.27
21520;BME280;10921;53.614;9.882;2024-02-26T02:42:25;100215.94;;;1.98;91.25
21520;BME280;10921;53.614;9.882;2024-02-26T02:44:52;100216.13;;;1.95;91.79
21520;BME280;10921;53.614;9.882;2024-02-26T02:47:18;100198.53;;;1.83;91.91
21520;BME280;10921;53.614;9.882;2024-02-26T02:49:45;100220.53;;;1.94;92.58
21520;BME280;10921;53.614;9.882;2024-02-26T02:52:12;100218.84;;;1.93;93.01
21520;BME280;10921;53.614;9.882;2024-02-26T02:54:38;100211.91;;;1.92;92.59
21520;BME280;10921;53.614;9.882;2024-02-26T02:57:08;100230.03;;;1.97;92.53
21520;BME280;10921;53.614;9.882;2024-02-26T02:59:36;100223.19;;;1.94;92.23
21520;BME280;10921;53.614;9.882;2024-02-26T03:02:03;100217.16;;;1.92;92.05
21520;BME280;10921;53.614;9.882;2024-02-26T03:04:30;100183.34;;;1.73;91.91
21520;BME280;10921;53.614;9.882;2024-02-26T03:06:56;100216.53;;;1.89;91.79
21520;BME280;10921;53.614;9.882;2024-02-26T03:09:24;100210.59;;;1.85;92.74
21520;BME280;10921;53.614;9.882;2024-02-26T03:11:51;100221.78;;;1.89;92.81
21520;BME280;10921;53.614;9.882;2024-02-26T03:14:17;100224.41;;;1.89;92.08
21520;BME280;10921;53.614;9.882;2024-02-26T03:16:44;100224.50;;;1.87;92.28
21520;BME280;10921;53.614;9.882;2024-02-26T03:19:10;100223.66;;;1.87;92.49
21520;BME280;10921;53.614;9.882;2024-02-26T03:21:37;100217.13;;;1.80;92.40
21520;BME280;10921;53.614;9.882;2024-02-26T03:24:04;100222.19;;;1.83;91.95
21520;BME280;10921;53.614;9.882;2024-02-26T03:26:31;100229.97;;;1.84;91.88
21520;BME280;10921;53.614;9.882;2024-02-26T03:28:57;100231.75;;;1.84;92.34
21520;BME280;10921;53.614;9.882;2024-02-26T03:31:24;100229.25;;;1.82;92.62
21520;BME280;10921;53.614;9.882;2024-02-26T03:33:50;100236.06;;;1.85;92.29
21520;BME280;10921;53.614;9.882;2024-02-26T03:36:17;100222.59;;;1.76;92.42
21520;BME280;10921;53.614;9.882;2024-02-26T03:38:44;100238.94;;;1.82;91.91
21520;BME280;10921;53.614;9.882;2024-02-26T03:41:10;100245.31;;;1.77;91.74
21520;BME280;10921;53.614;9.882;2024-02-26T03:43:37;100237.72;;;1.73;91.76
21520;BME280;10921;53.614;9.882;2024-02-26T03:46:03;100242.13;;;1.72;91.36
21520;BME280;10921;53.614;9.882;2024-02-26T03:48:30;100244.34;;;1.66;91.43
21520;BME280;10921;53.614;9.882;2024-02-26T03:50:56;100252.22;;;1.66;91.41
21520;BME280;10921;53.614;9.882;2024-02-26T03:53:23;100249.69;;;1.64;91.83
21520;BME280;10921;53.614;9.882;2024-02-26T03:55:49;100259.47;;;1.62;92.07
21520;BME280;10921;53.614;9.882;2024-02-26T03:58:18;100263.88;;;1.62;92.30
21520;BME280;10921;53.614;9.882;2024-02-26T04:00:45;100250.69;;;1.49;92.05
21520;BME280;10921;53.614;9.882;2024-02-26T04:03:14;100268.41;;;1.60;92.32
21520;BME280;10921;53.614;9.882;2024-02-26T04:05:40;100265.00;;;1.58;92.41
21520;BME280;10921;53.614;9.882;2024-02-26T04:08:07;100273.00;;;1.56;92.57
21520;BME280;10921;53.614;9.882;2024-02-26T04:10:34;100282.19;;;1.63;92.58
21520;BME280;10921;53.614;9.882;2024-02-26T04:13:07;100286.50;;;1.64;93.52
21520;BME280;10921;53.614;9.882;2024-02-26T04:15:34;100294.84;;;1.71;93.10
21520;BME280;10921;53.614;9.882;2024-02-26T04:18:01;100295.22;;;1.79;93.26
21520;BME280;10921;53.614;9.882;2024-02-26T04:20:29;100297.31;;;1.87;92.78
21520;BME280;10921;53.614;9.882;2024-02-26T04:22:55;100297.78;;;1.93;93.01
21520;BME280;10921;53.614;9.882;2024-02-26T04:25:22;100305.38;;;1.98;92.59
21520;BME280;10921;53.614;9.882;2024-02-26T04:27:48;100307.88;;;1.99;91.81
21520;BME280;10921;53.614;9.882;2024-02-26T04:30:15;100310.84;;;1.95;91.98
21520;BME280;10921;53.614;9.882;2024-02-26T04:32:43;100329.59;;;2.03;91.47
21520;BME280;10921;53.614;9.882;2024-02-26T04:35:10;100319.38;;;1.98;91.66
21520;BME280;10921;53.614;9.882;2024-02-26T04:37:36;100332.31;;;2.01;91.71
21520;BME280;10921;53.614;9.882;2024-02-26T04:40:03;100318.53;;;1.98;91.74
21520;BME280;10921;53.614;9.882;2024-02-26T04:42:30;100314.00;;;2.00;91.87
21520;BME280;10921;53.614;9.882;2024-02-26T04:44:57;100333.25;;;2.00;92.40
21520;BME280;10921;53.614;9.882;2024-02-26T04:47:24;100320.72;;;1.91;92.32
21520;BME280;10921;53.614;9.882;2024-02-26T04:49:51;100335.03;;;2.00;92.31
21520;BME280;10921;53.614;9.882;2024-02-26T04:52:18;100340.44;;;1.98;92.13
21520;BME280;10921;53.614;9.882;2024-02-26T04:54:45;100338.94;;;1.94;92.39
21520;BME280;10921;53.614;9.882;2024-02-26T04:57:11;100348.53;;;1.95;91.79
21520;BME280;10921;53.614;9.882;2024-02-26T04:59:38;100351.06;;;1.97;92.69
21520;BME280;10921;53.614;9.882;2024-02-26T05:02:04;100349.38;;;1.96;92.42
21520;BME280;10921;53.614;9.882;2024-02-26T05:04:31;100354.72;;;1.94;92.82
21520;BME280;10921;53.614;9.882;2024-02-26T05:06:58;100352.19;;;1.93;92.35
21520;BME280;10921;53.614;9.882;2024-02-26T05:09:24;100342.25;;;1.84;92.36
21520;BME280;10921;53.614;9.882;2024-02-26T05:11:51;100346.56;;;1.85;92.49
21520;BME280;10921;53.614;9.882;2024-02-26T05:14:18;100363.75;;;1.90;92.34
21520;BME280;10921;53.614;9.882;2024-02-26T05:16:44;100363.00;;;1.88;91.95
21520;BME280;10921;53.614;9.882;2024-02-26T05:19:11;100360.47;;;1.87;92.52
21520;BME280;10921;53.614;9.882;2024-02-26T05:21:37;100364.88;;;1.86;92.63
21520;BME280;10921;53.614;9.882;2024-02-26T05:24:04;100358.16;;;1.82;92.15
21520;BME280;10921;53.614;9.882;2024-02-26T05:26:31;100370.13;;;1.86;92.60
21520;BME280;10921;53.614;9.882;2024-02-26T05:28:57;100366.22;;;1.79;92.09
21520;BME280;10921;53.614;9.882;2024-02-26T05:31:26;100367.81;;;1.82;92.05
21520;BME280;10921;53.614;9.882;2024-02-26T05:33:54;100379.91;;;1.84;92.34
21520;BME280;10921;53.614;9.882;2024-02-26T05:36:24;100359.56;;;1.73;92.59
21520;BME280;10921;53.614;9.882;2024-02-26T05:38:51;100384.47;;;1.82;92.28
21520;BME280;10921;53.614;9.882;2024-02-26T05:41:18;100384.47;;;1.82;92.18
21520;BME280;10921;53.614;9.882;2024-02-26T05:43:49;100395.81;;;1.83;92.91
21520;BME280;10921;53.614;9.882;2024-02-26T05:46:17;100399.19;;;1.85;92.84
21520;BME280;10921;53.614;9.882;2024-02-26T05:48:46;100394.66;;;1.87;93.25
21520;BME280;10921;53.614;9.882;2024-02-26T05:51:13;100386.25;;;1.82;93.28
21520;BME280;10921;53.614;9.882;2024-02-26T05:53:41;100401.34;;;1.92;93.42
21520;BME280;10921;53.614;9.882;2024-02-26T05:56:07;100400.50;;;1.92;93.18
21520;BME280;10921;53.614;9.882;2024-02-26T05:58:34;100395.13;;;1.93;93.69
21520;BME280;10921;53.614;9.882;2024-02-26T06:01:01;100394.09;;;1.96;93.68
21520;BME280;10921;53.614;9.882;2024-02-26T06:03:27;100401.50;;;2.03;93.84
21520;BME280;10921;53.614;9.882;2024-02-26T06:05:54;100408.69;;;2.14;94.02
21520;BME280;10921;53.614;9.882;2024-02-26T06:08:21;100399.56;;;2.20;94.20
21520;BME280;10921;53.614;9.882;2024-02-26T06:10:50;100398.63;;;2.21;94.13
21520;BME280;10921;53.614;9.882;2024-02-26T06:13:16;100413.72;;;2.31;94.03
21520;BME280;10921;53.614;9.882;2024-02-26T06:15:43;100424.72;;;2.38;94.23
21520;BME280;10921;53.614;9.882;2024-02-26T06:18:09;100411.72;;;2.35;93.76
21520;BME280;10921;53.614;9.882;2024-02-26T06:20:36;100431.25;;;2.45;94.26
21520;BME280;10921;53.614;9.882;2024-02-26T06:23:02;100418.31;;;2.42;93.63
21520;BME280;10921;53.614;9.882;2024-02-26T06:25:29;100429.16;;;2.50;93.41
21520;BME280;10921;53.614;9.882;2024-02-26T06:27:55;100431.50;;;2.55;93.72
21520;BME280;10921;53.614;9.882;2024-02-26T06:30:22;100428.78;;;2.56;93.86
21520;BME280;10921;53.614;9.882;2024-02-26T06:32:49;100437.34;;;2.60;93.51
21520;BME280;10921;53.614;9.882;2024-02-26T06:35:15;100447.53;;;2.64;93.70
21520;BME280;10921;53.614;9.882;2024-02-26T06:37:42;100441.22;;;2.67;93.71
21520;BME280;10921;53.614;9.882;2024-02-26T06:40:08;100443.56;;;2.71;93.71
21520;BME280;10921;53.614;9.882;2024-02-26T06:42:35;100438.22;;;2.73;93.32
21520;BME280;10921;53.614;9.882;2024-02-26T06:45:03;100445.88;;;2.76;93.41
21520;BME280;10921;53.614;9.882;2024-02-26T06:47:30;100447.38;;;2.80;93.70
21520;BME280;10921;53.614;9.882;2024-02-26T06:49:57;100447.19;;;2.83;93.25
21520;BME280;10921;53.614;9.882;2024-02-26T06:52:27;100431.16;;;2.73;93.27
21520;BME280;10921;53.614;9.882;2024-02-26T06:54:54;100451.22;;;2.89;93.70
21520;BME280;10921;53.614;9.882;2024-02-26T06:57:20;100459.03;;;2.90;93.18
21520;BME280;10921;53.614;9.882;2024-02-26T06:59:47;100457.94;;;2.93;93.29
21520;BME280;10921;53.614;9.882;2024-02-26T07:02:14;100456.06;;;2.95;93.80
21520;BME280;10921;53.614;9.882;2024-02-26T07:04:40;100449.28;;;2.91;93.63
21520;BME280;10921;53.614;9.882;2024-02-26T07:07:08;100460.19;;;2.99;93.72
21520;BME280;10921;53.614;9.882;2024-02-26T07:09:35;100463.56;;;3.01;93.76
21520;BME280;10921;53.614;9.882;2024-02-26T07:12:01;100470.72;;;2.99;93.72
21520;BME280;10921;53.614;9.882;2024-02-26T07:14:28;100463.25;;;3.05;94.05
21520;BME280;10921;53.614;9.882;2024-02-26T07:16:55;100471.16;;;3.05;93.58
21520;BME280;10921;53.614;9.882;2024-02-26T07:19:21;100455.03;;;3.10;93.80
21520;BME280;10921;53.614;9.882;2024-02-26T07:21:48;100466.13;;;3.15;94.40
21520;BME280;10921;53.614;9.882;2024-02-26T07:24:14;100464.31;;;3.15;94.26
21520;BME280;10921;53.614;9.882;2024-02-26T07:26:41;100472.53;;;3.24;94.16
21520;BME280;10921;53.614;9.882;2024-02-26T07:29:08;100477.41;;;3.30;94.69
21520;BME280;10921;53.614;9.882;2024-02-26T07:31:34;100477.97;;;3.35;94.67
21520;BME280;10921;53.614;9.882;2024-02-26T07:34:01;100477.63;;;3.39;94.75
21520;BME280;10921;53.614;9.882;2024-02-26T07:36:27;100484.28;;;3.45;94.68
21520;BME280;10921;53.614;9.882;2024-02-26T07:38:54;100481.53;;;3.46;94.92
21520;BME280;10921;53.614;9.882;2024-02-26T07:41:21;100477.31;;;3.44;94.60
21520;BME280;10921;53.614;9.882;2024-02-26T07:43:47;100482.06;;;3.51;94.52
21520;BME280;10921;53.614;9.882;2024-02-26T07:46:14;100499.47;;;3.67;94.64
21520;BME280;10921;53.614;9.882;2024-02-26T07:48:41;100497.06;;;3.64;94.54
21520;BME280;10921;53.614;9.882;2024-02-26T07:51:08;100503.38;;;3.74;94.59
21520;BME280;10921;53.614;9.882;2024-02-26T07:53:35;100510.88;;;3.80;94.95
21520;BME280;10921;53.614;9.882;2024-02-26T07:56:01;100518.25;;;3.87;94.97
21520;BME280;10921;53.614;9.882;2024-02-26T07:58:29;100530.09;;;3.95;94.99
21520;BME280;10921;53.614;9.882;2024-02-26T08:00:56;100529.44;;;4.04;95.04
21520;BME280;10921;53.614;9.882;2024-02-26T08:03:23;100517.72;;;4.08;95.06
21520;BME280;10921;53.614;9.882;2024-02-26T08:05:51;100529.94;;;4.21;95.41
21520;BME280;10921;53.614;9.882;2024-02-26T08:08:18;100517.47;;;4.23;95.31
21520;BME280;10921;53.614;9.882;2024-02-26T08:10:44;100521.13;;;4.34;95.30
21520;BME280;10921;53.614;9.882;2024-02-26T08:13:11;100531.66;;;4.46;94.95
21520;BME280;10921;53.614;9.882;2024-02-26T08:15:38;100545.19;;;4.54;95.37
21520;BME280;10921;53.614;9.882;2024-02-26T08:18:10;100541.13;;;4.62;95.26
21520;BME280;10921;53.614;9.882;2024-02-26T08:20:37;100544.09;;;4.70;95.09
21520;BME280;10921;53.614;9.882;2024-02-26T08:23:04;100545.19;;;4.78;95.32
21520;BME280;10921;53.614;9.882;2024-02-26T08:25:30;100541.38;;;4.82;95.17
21520;BME280;10921;53.614;9.882;2024-02-26T08:27:57;100543.69;;;4.87;95.05
21520;BME280;10921;53.614;9.882;2024-02-26T08:30:24;100545.25;;;4.89;95.43
21520;BME280;10921;53.614;9.882;2024-02-26T08:32:50;100548.53;;;4.93;95.21
21520;BME280;10921;53.614;9.882;2024-02-26T08:35:19;100536.63;;;4.87;95.24
21520;BME280;10921;53.614;9.882;2024-02-26T08:37:46;100550.84;;;4.98;95.33
21520;BME280;10921;53.614;9.882;2024-02-26T08:40:14;100540.78;;;5.03;95.42
21520;BME280;10921;53.614;9.882;2024-02-26T08:42:44;100555.44;;;5.07;95.82
21520;BME280;10921;53.614;9.882;2024-02-26T08:45:11;100542.31;;;5.05;95.71
21520;BME280;10921;53.614;9.882;2024-02-26T08:47:39;100538.38;;;5.11;95.80
21520;BME280;10921;53.614;9.882;2024-02-26T08:50:06;100550.31;;;5.16;95.85
21520;BME280;10921;53.614;9.882;2024-02-26T08:52:33;100562.84;;;5.25;95.83
21520;BME280;10921;53.614;9.882;2024-02-26T08:54:59;100557.22;;;5.30;96.17
21520;BME280;10921;53.614;9.882;2024-02-26T08:57:26;100543.66;;;5.35;96.45
21520;BME280;10921;53.614;9.882;2024-02-26T08:59:54;100562.94;;;5.48;96.39
21520;BME280;10921;53.614;9.882;2024-02-26T09:02:20;100556.44;;;5.52;96.33
21520;BME280;10921;53.614;9.882;2024-02-26T09:04:47;100558.63;;;5.58;96.31
21520;BME280;10921;53.614;9.882;2024-02-26T09:07:14;100550.69;;;5.58;95.95
21520;BME280;10921;53.614;9.882;2024-02-26T09:09:41;100563.94;;;5.69;96.19
21520;BME280;10921;53.614;9.882;2024-02-26T09:12:08;100561.56;;;5.77;96.61
21520;BME280;10921;53.614;9.882;2024-02-26T09:14:35;100566.25;;;5.85;96.83
21520;BME280;10921;53.614;9.882;2024-02-26T09:17:02;100564.75;;;5.93;97.19
21520;BME280;10921;53.614;9.882;2024-02-26T09:19:29;100573.44;;;6.07;97.35
21520;BME280;10921;53.614;9.882;2024-02-26T09:21:55;100573.31;;;6.19;97.70
21520;BME280;10921;53.614;9.882;2024-02-26T09:24:24;100581.13;;;6.32;97.53
21520;BME280;10921;53.614;9.882;2024-02-26T09:26:51;100583.09;;;6.41;97.44
21520;BME280;10921;53.614;9.882;2024-02-26T09:29:18;100583.19;;;6.51;97.49
21520;BME280;10921;53.614;9.882;2024-02-26T09:31:45;100585.59;;;6.65;97.56
21520;BME280;10921;53.614;9.882;2024-02-26T09:34:14;100587.25;;;6.77;97.59
21520;BME280;10921;53.614;9.882;2024-02-26T09:36:40;100588.06;;;6.89;97.39
21520;BME280;10921;53.614;9.882;2024-02-26T09:39:07;100578.78;;;6.94;97.41
21520;BME280;10921;53.614;9.882;2024-02-26T09:41:37;100595.84;;;7.13;97.48
21520;BME280;10921;53.614;9.882;2024-02-26T09:44:05;100597.72;;;7.22;96.60
21520;BME280;10921;53.614;9.882;2024-02-26T09:46:33;100588.69;;;7.24;96.54
21520;BME280;10921;53.614;9.882;2024-02-26T09:48:59;100592.84;;;7.38;95.92
21520;BME280;10921;53.614;9.882;2024-02-26T09:51:27;100608.16;;;7.46;95.75
21520;BME280;10921;53.614;9.882;2024-02-26T09:53:54;100605.81;;;7.52;95.44
21520;BME280;10921;53.614;9.882;2024-02-26T09:56:23;100602.78;;;7.57;94.59
21520;BME280;10921;53.614;9.882;2024-02-26T09:58:50;100589.75;;;7.54;94.67
21520;BME280;10921;53.614;9.882;2024-02-26T10:01:20;100608.28;;;7.65;94.28
21520;BME280;10921;53.614;9.882;2024-02-26T10:03:57;100606.94;;;7.70;95.36
21520;BME280;10921;53.614;9.882;2024-02-26T10:06:26;100613.56;;;7.76;94.46
21520;BME280;10921;53.614;9.882;2024-02-26T10:08:55;100615.97;;;7.79;94.16
21520;BME280;10921;53.614;9.882;2024-02-26T10:11:22;100614.97;;;7.80;94.15
21520;BME280;10921;53.614;9.882;2024-02-26T10:13:49;100617.13;;;7.86;94.32
21520;BME280;10921;53.614;9.882;2024-02-26T10:16:16;100623.88;;;7.90;94.44
21520;BME280;10921;53.614;9.882;2024-02-26T10:18:49;100603.72;;;7.88;95.93
21520;BME280;10921;53.614;9.882;2024-02-26T10:21:25;100616.06;;;7.98;94.78
21520;BME280;10921;53.614;9.882;2024-02-26T10:23:52;100609.78;;;7.99;94.78
21520;BME280;10921;53.614;9.882;2024-02-26T10:26:19;100617.44;;;8.13;94.54
21520;BME280;10921;53.614;9.882;2024-02-26T10:28:46;100623.91;;;8.21;94.87
21520;BME280;10921;53.614;9.882;2024-02-26T10:31:18;100615.94;;;8.21;94.63
21520;BME280;10921;53.614;9.882;2024-02-26T10:33:45;100635.34;;;8.32;94.57
21520;BME280;10921;53.614;9.882;2024-02-26T10:36:12;100626.13;;;8.36;94.33
21520;BME280;10921;53.614;9.882;2024-02-26T10:38:38;100631.88;;;8.41;94.75
21520;BME280;10921;53.614;9.882;2024-02-26T10:41:13;100638.94;;;8.52;95.95
21520;BME280;10921;53.614;9.882;2024-02-26T10:43:42;100636.44;;;8.60;95.75
21520;BME280;10921;53.614;9.882;2024-02-26T10:46:09;100636.63;;;8.68;95.16
21520;BME280;10921;53.614;9.882;2024-02-26T10:48:36;100637.22;;;8.81;94.65
21520;BME280;10921;53.614;9.882;2024-02-26T10:51:04;100640.88;;;8.90;94.25
21520;BME280;10921;53.614;9.882;2024-02-26T10:53:31;100641.78;;;9.00;93.13
21520;BME280;10921;53.614;9.882;2024-02-26T10:56:04;100636.00;;;9.05;93.76
21520;BME280;10921;53.614;9.882;2024-02-26T10:58:34;100644.31;;;9.11;90.81
21520;BME280;10921;53.614;9.882;2024-02-26T11:01:02;100646.56;;;9.16;90.83
21520;BME280;10921;53.614;9.882;2024-02-26T11:03:30;100646.56;;;9.16;89.91
21520;BME280;10921;53.614;9.882;2024-02-26T11:06:00;100651.31;;;9.22;91.01
21520;BME280;10921;53.614;9.882;2024-02-26T11:08:28;100643.66;;;9.29;91.80
21520;BME280;10921;53.614;9.882;2024-02-26T11:10:56;100651.38;;;9.41;92.26
21520;BME280;10921;53.614;9.882;2024-02-26T11:13:26;100633.41;;;9.53;92.27
21520;BME280;10921;53.614;9.882;2024-02-26T11:15:55;100646.59;;;9.74;92.60
21520;BME280;10921;53.614;9.882;2024-02-26T11:18:23;100632.00;;;9.87;92.52
21520;BME280;10921;53.614;9.882;2024-02-26T11:20:52;100606.47;;;9.85;91.18
21520;BME280;10921;53.614;9.882;2024-02-26T11:23:21;100634.19;;;10.31;90.75
21520;BME280;10921;53.614;9.882;2024-02-26T11:25:49;100644.97;;;10.48;89.88
21520;BME280;10921;53.614;9.882;2024-02-26T11:28:18;100624.53;;;10.57;88.98
21520;BME280;10921;53.614;9.882;2024-02-26T11:30:47;100640.84;;;10.91;90.15
21520;BME280;10921;53.614;9.882;2024-02-26T11:33:15;100631.47;;;11.05;86.78
21520;BME280;10921;53.614;9.882;2024-02-26T11:35:43;100641.09;;;11.15;84.37
21520;BME280;10921;53.614;9.882;2024-02-26T11:38:17;100638.84;;;11.38;86.00
21520;BME280;10921;53.614;9.882;2024-02-26T11:40:46;100648.03;;;11.53;82.49
21520;BME280;10921;53.614;9.882;2024-02-26T11:43:13;100609.03;;;11.43;80.72
21520;BME280;10921;53.614;9.882;2024-02-26T11:48:13;100656.56;;;11.92;80.00
21520;BME280;10921;53.614;9.882;2024-02-26T11:50:42;100662.16;;;11.99;79.12
21520;BME280;10921;53.614;9.882;2024-02-26T11:53:27;100668.09;;;12.11;80.09
21520;BME280;10921;53.614;9.882;2024-02-26T11:58:40;100654.19;;;12.07;77.13
21520;BME280;10921;53.614;9.882;2024-02-26T12:01:35;100667.53;;;12.25;78.96
21520;BME280;10921;53.614;9.882;2024-02-26T12:04:04;100668.09;;;12.11;77.32
21520;BME280;10921;53.614;9.882;2024-02-26T12:06:40;100666.09;;;12.13;78.49
21520;BME280;10921;53.614;9.882;2024-02-26T12:09:07;100680.72;;;12.01;77.38
21520;BME280;10921;53.614;9.882;2024-02-26T12:11:38;100674.00;;;11.96;77.61
21520;BME280;10921;53.614;9.882;2024-02-26T12:14:07;100675.59;;;11.72;75.61
21520;BME280;10921;53.614;9.882;2024-02-26T12:16:36;100680.69;;;11.47;76.16
21520;BME280;10921;53.614;9.882;2024-02-26T12:19:05;100679.50;;;11.32;75.53
21520;BME280;10921;53.614;9.882;2024-02-26T12:21:34;100682.63;;;11.10;75.48
21520;BME280;10921;53.614;9.882;2024-02-26T12:24:11;100684.53;;;10.90;76.80
21520;BME280;10921;53.614;9.882;2024-02-26T12:26:40;100675.38;;;10.55;76.83
21520;BME280;10921;53.614;9.882;2024-02-26T12:29:08;100690.31;;;10.48;78.19
21520;BME280;10921;53.614;9.882;2024-02-26T12:31:34;100699.31;;;10.38;78.03
21520;BME280;10921;53.614;9.882;2024-02-26T12:34:04;100705.22;;;10.32;79.08
21520;BME280;10921;53.614;9.882;2024-02-26T12:36:31;100707.47;;;10.27;79.31
21520;BME280;10921;53.614;9.882;2024-02-26T12:38:58;100708.44;;;10.26;79.66
21520;BME280;10921;53.614;9.882;2024-02-26T12:41:24;100703.25;;;10.24;80.53
21520;BME280;10921;53.614;9.882;2024-02-26T12:43:53;100716.88;;;10.31;79.36
21520;BME280;10921;53.614;9.882;2024-02-26T12:46:20;100724.59;;;10.24;78.92
21520;BME280;10921;53.614;9.882;2024-02-26T12:48:47;100731.22;;;10.20;79.44
21520;BME280;10921;53.614;9.882;2024-02-26T12:51:16;100741.03;;;10.19;79.88
21520;BME280;10921;53.614;9.882;2024-02-26T12:53:44;100729.78;;;10.16;79.71
21520;BME280;10921;53.614;9.882;2024-02-26T12:56:11;100734.25;;;10.15;78.92
21520;BME280;10921;53.614;9.882;2024-02-26T12:58:41;100737.38;;;10.20;79.32
21520;BME280;10921;53.614;9.882;2024-02-26T13:01:14;100741.44;;;10.25;80.02
21520;BME280;10921;53.614;9.882;2024-02-26T13:03:42;100738.38;;;10.19;78.93
21520;BME280;10921;53.614;9.882;2024-02-26T13:06:10;100745.75;;;10.16;78.78